RYR496E LEZL-GCFV
Flight info
| Callsign | RYR496E |
|---|---|
| Flight time | 1h 46m |
| Altitude | 35000 |
| Route | CLANA N857 KORNO/N0445F390 UN857 TERTO |
| Aircraft | B38M/M-SADE3FGILRWY/SB1 |
Departure
| Time | 2026-04-25 16:54 |
|---|---|
| Airport | Seville Airport (LEZL) |
Arrival
| Time | 2026-04-25 18:40 |
|---|---|
| Airport | Fuerteventura Airport (GCFV) |
| Time | Latitude | Longitude | Altitude | Speed | Heading |
|---|---|---|---|---|---|
| 2026-04-25 16:27 | 37.42106 | -5.90125 | 96 ft | 0 kts | 359° |
| 2026-04-25 16:46 | 37.42105 | -5.90125 | 97 ft | 1 kts | 359° |
| 2026-04-25 16:46 | 37.42082 | -5.90124 | 96 ft | 3 kts | 359° |
| 2026-04-25 16:46 | 37.42070 | -5.90124 | 96 ft | 4 kts | 359° |
| 2026-04-25 16:47 | 37.42044 | -5.90123 | 97 ft | 4 kts | 49° |
| 2026-04-25 16:47 | 37.42045 | -5.90130 | 97 ft | 4 kts | 97° |
| 2026-04-25 16:47 | 37.42047 | -5.90162 | 98 ft | 4 kts | 90° |
| 2026-04-25 16:47 | 37.42047 | -5.90192 | 98 ft | 1 kts | 90° |
| 2026-04-25 16:49 | 37.42047 | -5.90191 | 98 ft | 1 kts | 90° |
| 2026-04-25 16:49 | 37.42047 | -5.90143 | 98 ft | 9 kts | 91° |
| 2026-04-25 16:49 | 37.42005 | -5.90094 | 100 ft | 9 kts | 168° |
| 2026-04-25 16:50 | 37.41980 | -5.90032 | 97 ft | 10 kts | 88° |
| 2026-04-25 16:50 | 37.41981 | -5.89933 | 96 ft | 13 kts | 91° |
| 2026-04-25 16:50 | 37.41981 | -5.89796 | 96 ft | 18 kts | 89° |
| 2026-04-25 16:50 | 37.41983 | -5.89611 | 95 ft | 24 kts | 89° |
| 2026-04-25 16:51 | 37.41983 | -5.89389 | 95 ft | 26 kts | 90° |
| 2026-04-25 16:51 | 37.41983 | -5.89165 | 100 ft | 25 kts | 89° |
| 2026-04-25 16:51 | 37.41984 | -5.88943 | 102 ft | 25 kts | 90° |
| 2026-04-25 16:51 | 37.41983 | -5.88799 | 107 ft | 24 kts | 90° |
| 2026-04-25 16:52 | 37.41985 | -5.88523 | 109 ft | 25 kts | 89° |
| 2026-04-25 16:52 | 37.41986 | -5.88304 | 111 ft | 25 kts | 90° |
| 2026-04-25 16:52 | 37.41986 | -5.88078 | 110 ft | 27 kts | 90° |
| 2026-04-25 16:52 | 37.41986 | -5.87827 | 107 ft | 29 kts | 90° |
| 2026-04-25 16:53 | 37.41980 | -5.87371 | 109 ft | 23 kts | 105° |
| 2026-04-25 16:53 | 37.41878 | -5.87333 | 112 ft | 19 kts | 222° |
| 2026-04-25 16:53 | 37.41801 | -5.87560 | 110 ft | 53 kts | 266° |
| 2026-04-25 16:54 | 37.41797 | -5.88317 | 110 ft | 118 kts | 270° |
| 2026-04-25 16:54 | 37.41787 | -5.89556 | 114 ft | 164 kts | 266° |
| 2026-04-25 16:54 | 37.41835 | -5.91036 | 595 ft | 175 kts | 272° |
| 2026-04-25 16:54 | 37.41920 | -5.92607 | 1151 ft | 184 kts | 277° |
| 2026-04-25 16:55 | 37.42376 | -5.94047 | 2029 ft | 180 kts | 301° |
| 2026-04-25 16:55 | 37.43099 | -5.95441 | 2472 ft | 201 kts | 303° |
| 2026-04-25 16:55 | 37.43744 | -5.97093 | 2854 ft | 223 kts | 279° |
| 2026-04-25 16:55 | 37.43907 | -5.99111 | 3343 ft | 241 kts | 275° |
| 2026-04-25 16:56 | 37.44038 | -6.01301 | 3771 ft | 261 kts | 273° |
| 2026-04-25 16:56 | 37.43910 | -6.03619 | 4300 ft | 270 kts | 248° |
| 2026-04-25 16:56 | 37.42821 | -6.05455 | 5143 ft | 270 kts | 217° |
| 2026-04-25 16:56 | 37.41169 | -6.06629 | 5772 ft | 277 kts | 201° |
| 2026-04-25 16:57 | 37.39294 | -6.07029 | 6590 ft | 275 kts | 177° |
| 2026-04-25 16:57 | 37.37992 | -6.06951 | 7024 ft | 280 kts | 176° |
| 2026-04-25 16:57 | 37.35395 | -6.06789 | 7992 ft | 284 kts | 175° |
| 2026-04-25 16:57 | 37.33407 | -6.06651 | 8706 ft | 288 kts | 175° |
| 2026-04-25 16:58 | 37.31395 | -6.06503 | 9436 ft | 292 kts | 175° |
| 2026-04-25 16:58 | 37.29356 | -6.06349 | 10133 ft | 296 kts | 175° |
| 2026-04-25 16:58 | 37.27254 | -6.06187 | 10522 ft | 312 kts | 175° |
| 2026-04-25 16:58 | 37.25038 | -6.06016 | 10903 ft | 325 kts | 175° |
| 2026-04-25 16:59 | 37.22798 | -6.05842 | 11585 ft | 328 kts | 175° |
| 2026-04-25 16:59 | 37.20508 | -6.05664 | 12303 ft | 332 kts | 175° |
| 2026-04-25 16:59 | 37.18189 | -6.05484 | 13062 ft | 335 kts | 175° |
| 2026-04-25 16:59 | 37.15852 | -6.05618 | 13814 ft | 341 kts | 192° |
| 2026-04-25 17:00 | 37.13671 | -6.06806 | 14503 ft | 346 kts | 214° |
| 2026-04-25 17:00 | 37.11778 | -6.08706 | 15159 ft | 352 kts | 218° |
| 2026-04-25 17:00 | 37.09871 | -6.10661 | 15852 ft | 357 kts | 219° |
| 2026-04-25 17:00 | 37.07943 | -6.12654 | 16585 ft | 362 kts | 219° |
| 2026-04-25 17:01 | 37.06021 | -6.14649 | 17262 ft | 366 kts | 220° |
| 2026-04-25 17:01 | 37.04058 | -6.16689 | 17932 ft | 369 kts | 220° |
| 2026-04-25 17:01 | 37.02082 | -6.18770 | 18538 ft | 373 kts | 221° |
| 2026-04-25 17:01 | 37.00097 | -6.20884 | 19102 ft | 376 kts | 221° |
| 2026-04-25 17:02 | 36.98098 | -6.23008 | 19656 ft | 379 kts | 221° |
| 2026-04-25 17:02 | 36.96080 | -6.25149 | 20203 ft | 382 kts | 221° |
| 2026-04-25 17:02 | 36.94045 | -6.27307 | 20749 ft | 385 kts | 221° |
| 2026-04-25 17:02 | 36.92690 | -6.28744 | 21113 ft | 387 kts | 221° |
| 2026-04-25 17:03 | 36.89928 | -6.31668 | 21839 ft | 391 kts | 221° |
| 2026-04-25 17:03 | 36.87872 | -6.33842 | 22370 ft | 394 kts | 221° |
| 2026-04-25 17:03 | 36.85770 | -6.36064 | 22909 ft | 397 kts | 221° |
| 2026-04-25 17:03 | 36.83654 | -6.38300 | 23441 ft | 400 kts | 221° |
| 2026-04-25 17:04 | 36.81521 | -6.40552 | 23906 ft | 403 kts | 221° |
| 2026-04-25 17:04 | 36.79370 | -6.42820 | 24355 ft | 406 kts | 221° |
| 2026-04-25 17:04 | 36.77206 | -6.45101 | 24803 ft | 409 kts | 221° |
| 2026-04-25 17:04 | 36.75027 | -6.47395 | 25233 ft | 411 kts | 222° |
| 2026-04-25 17:05 | 36.72838 | -6.49700 | 25677 ft | 414 kts | 223° |
| 2026-04-25 17:05 | 36.68407 | -6.54356 | 26518 ft | 419 kts | 223° |
| 2026-04-25 17:05 | 36.66172 | -6.56703 | 26940 ft | 422 kts | 223° |
| 2026-04-25 17:06 | 36.63951 | -6.59033 | 27348 ft | 424 kts | 223° |
| 2026-04-25 17:06 | 36.61687 | -6.61406 | 27740 ft | 427 kts | 223° |
| 2026-04-25 17:06 | 36.59405 | -6.63795 | 28134 ft | 430 kts | 223° |
| 2026-04-25 17:06 | 36.57111 | -6.66196 | 28523 ft | 432 kts | 223° |
| 2026-04-25 17:07 | 36.54800 | -6.68613 | 28906 ft | 435 kts | 224° |
| 2026-04-25 17:07 | 36.52475 | -6.71044 | 29288 ft | 438 kts | 224° |
| 2026-04-25 17:07 | 36.50130 | -6.73474 | 29649 ft | 440 kts | 224° |
| 2026-04-25 17:07 | 36.47768 | -6.75908 | 30013 ft | 443 kts | 224° |
| 2026-04-25 17:08 | 36.45423 | -6.78326 | 30320 ft | 445 kts | 224° |
| 2026-04-25 17:08 | 36.43034 | -6.80788 | 30640 ft | 447 kts | 224° |
| 2026-04-25 17:08 | 36.40637 | -6.83257 | 30975 ft | 449 kts | 224° |
| 2026-04-25 17:08 | 36.38230 | -6.85733 | 31264 ft | 450 kts | 224° |
| 2026-04-25 17:09 | 36.35812 | -6.88219 | 31571 ft | 452 kts | 224° |
| 2026-04-25 17:09 | 36.33386 | -6.90711 | 31892 ft | 453 kts | 224° |
| 2026-04-25 17:09 | 36.30954 | -6.93207 | 32215 ft | 455 kts | 224° |
| 2026-04-25 17:09 | 36.28511 | -6.95712 | 32529 ft | 456 kts | 224° |
| 2026-04-25 17:10 | 36.26070 | -6.98213 | 32904 ft | 456 kts | 224° |
| 2026-04-25 17:10 | 36.23659 | -7.00681 | 33214 ft | 457 kts | 224° |
| 2026-04-25 17:10 | 36.21205 | -7.03191 | 33516 ft | 458 kts | 224° |
| 2026-04-25 17:10 | 36.18742 | -7.05709 | 33827 ft | 459 kts | 224° |
| 2026-04-25 17:11 | 36.16278 | -7.08225 | 34202 ft | 458 kts | 224° |
| 2026-04-25 17:11 | 36.13823 | -7.10730 | 34558 ft | 457 kts | 224° |
| 2026-04-25 17:11 | 36.11374 | -7.13227 | 34901 ft | 456 kts | 224° |
| 2026-04-25 17:11 | 36.08930 | -7.15717 | 35243 ft | 454 kts | 224° |
| 2026-04-25 17:12 | 36.06494 | -7.18196 | 35570 ft | 453 kts | 224° |
| 2026-04-25 17:12 | 36.04064 | -7.20667 | 35887 ft | 452 kts | 224° |
| 2026-04-25 17:12 | 36.01671 | -7.23098 | 36181 ft | 450 kts | 224° |
| 2026-04-25 17:12 | 35.99262 | -7.25545 | 36604 ft | 446 kts | 224° |
| 2026-04-25 17:13 | 35.96872 | -7.27969 | 36972 ft | 444 kts | 224° |
| 2026-04-25 17:13 | 35.95297 | -7.29566 | 37178 ft | 442 kts | 224° |
| 2026-04-25 17:13 | 35.92120 | -7.32785 | 37561 ft | 441 kts | 224° |
| 2026-04-25 17:13 | 35.89755 | -7.35178 | 37838 ft | 439 kts | 224° |
| 2026-04-25 17:14 | 35.87395 | -7.37565 | 38091 ft | 438 kts | 224° |
| 2026-04-25 17:14 | 35.85038 | -7.39948 | 38336 ft | 437 kts | 224° |
| 2026-04-25 17:14 | 35.82713 | -7.42280 | 38566 ft | 437 kts | 223° |
| 2026-04-25 17:14 | 35.80359 | -7.44631 | 38772 ft | 435 kts | 223° |
| 2026-04-25 17:15 | 35.78004 | -7.46983 | 38923 ft | 435 kts | 223° |
| 2026-04-25 17:15 | 35.75653 | -7.49331 | 39020 ft | 436 kts | 223° |
| 2026-04-25 17:15 | 35.70948 | -7.54023 | 39018 ft | 434 kts | 223° |
| 2026-04-25 17:16 | 35.66253 | -7.58697 | 39024 ft | 434 kts | 223° |
| 2026-04-25 17:16 | 35.61586 | -7.63337 | 39024 ft | 434 kts | 223° |
| 2026-04-25 17:17 | 35.56890 | -7.67999 | 39023 ft | 434 kts | 223° |
| 2026-04-25 17:17 | 35.52191 | -7.72656 | 39023 ft | 434 kts | 223° |
| 2026-04-25 17:18 | 35.47493 | -7.77304 | 39018 ft | 434 kts | 223° |
| 2026-04-25 17:18 | 35.42796 | -7.81946 | 39019 ft | 433 kts | 223° |
| 2026-04-25 17:19 | 35.38160 | -7.86583 | 39021 ft | 433 kts | 223° |
| 2026-04-25 17:19 | 35.33490 | -7.91253 | 39021 ft | 433 kts | 223° |
| 2026-04-25 17:20 | 35.28818 | -7.95915 | 39021 ft | 433 kts | 223° |
| 2026-04-25 17:20 | 35.24141 | -8.00576 | 39021 ft | 433 kts | 223° |
| 2026-04-25 17:21 | 35.19465 | -8.05228 | 39025 ft | 433 kts | 223° |
| 2026-04-25 17:21 | 35.14825 | -8.09838 | 39021 ft | 433 kts | 223° |
| 2026-04-25 17:22 | 35.10939 | -8.13693 | 39022 ft | 433 kts | 223° |
| 2026-04-25 17:22 | 35.05473 | -8.19108 | 39019 ft | 433 kts | 223° |
| 2026-04-25 17:23 | 35.00791 | -8.23738 | 39022 ft | 433 kts | 223° |
| 2026-04-25 17:23 | 34.96142 | -8.28329 | 39004 ft | 433 kts | 223° |
| 2026-04-25 17:24 | 34.91459 | -8.32946 | 39018 ft | 433 kts | 223° |
| 2026-04-25 17:24 | 34.86777 | -8.37554 | 39022 ft | 432 kts | 222° |
| 2026-04-25 17:25 | 34.82104 | -8.42148 | 39021 ft | 432 kts | 222° |
| 2026-04-25 17:25 | 34.77455 | -8.46711 | 39017 ft | 432 kts | 222° |
| 2026-04-25 17:26 | 34.72776 | -8.51297 | 39015 ft | 432 kts | 222° |
| 2026-04-25 17:26 | 34.68093 | -8.55879 | 39004 ft | 432 kts | 222° |
| 2026-04-25 17:27 | 34.63415 | -8.60450 | 39016 ft | 431 kts | 222° |
| 2026-04-25 17:27 | 34.60319 | -8.63472 | 39014 ft | 431 kts | 222° |
| 2026-04-25 17:28 | 34.54095 | -8.69537 | 39022 ft | 431 kts | 222° |
| 2026-04-25 17:28 | 34.49416 | -8.74089 | 39013 ft | 431 kts | 221° |
| 2026-04-25 17:29 | 34.44730 | -8.78638 | 39011 ft | 432 kts | 221° |
| 2026-04-25 17:29 | 34.40031 | -8.83157 | 39015 ft | 431 kts | 221° |
| 2026-04-25 17:30 | 34.35365 | -8.87644 | 39017 ft | 431 kts | 221° |
| 2026-04-25 17:30 | 34.30665 | -8.92157 | 39018 ft | 431 kts | 221° |
| 2026-04-25 17:31 | 34.25966 | -8.96663 | 39015 ft | 431 kts | 221° |
| 2026-04-25 17:31 | 34.21259 | -9.01169 | 39015 ft | 431 kts | 221° |
| 2026-04-25 17:32 | 34.16585 | -9.05636 | 39016 ft | 431 kts | 221° |
| 2026-04-25 17:32 | 34.11877 | -9.10130 | 39007 ft | 431 kts | 220° |
| 2026-04-25 17:33 | 34.07166 | -9.14621 | 39018 ft | 432 kts | 220° |
| 2026-04-25 17:33 | 34.02450 | -9.19110 | 39018 ft | 432 kts | 220° |
| 2026-04-25 17:34 | 33.97764 | -9.23564 | 39017 ft | 432 kts | 220° |
| 2026-04-25 17:34 | 33.93048 | -9.28040 | 39015 ft | 432 kts | 220° |
| 2026-04-25 17:35 | 33.88327 | -9.32513 | 39016 ft | 432 kts | 220° |
| 2026-04-25 17:35 | 33.83605 | -9.36981 | 39009 ft | 432 kts | 220° |
| 2026-04-25 17:36 | 33.78919 | -9.41409 | 39010 ft | 431 kts | 220° |
| 2026-04-25 17:36 | 33.74204 | -9.45859 | 39014 ft | 431 kts | 220° |
| 2026-04-25 17:37 | 33.69487 | -9.50303 | 39013 ft | 431 kts | 220° |
| 2026-04-25 17:37 | 33.64773 | -9.54737 | 39009 ft | 430 kts | 219° |
| 2026-04-25 17:38 | 33.61650 | -9.57673 | 39014 ft | 431 kts | 219° |
| 2026-04-25 17:38 | 33.55374 | -9.63563 | 39011 ft | 430 kts | 220° |
| 2026-04-25 17:39 | 33.50666 | -9.67974 | 39004 ft | 430 kts | 219° |
| 2026-04-25 17:39 | 33.45952 | -9.72383 | 39003 ft | 430 kts | 219° |
| 2026-04-25 17:40 | 33.41236 | -9.76789 | 39009 ft | 430 kts | 219° |
| 2026-04-25 17:40 | 33.36524 | -9.81184 | 39007 ft | 430 kts | 219° |
| 2026-04-25 17:41 | 33.31841 | -9.85546 | 39002 ft | 430 kts | 219° |
| 2026-04-25 17:41 | 33.27128 | -9.89932 | 38993 ft | 429 kts | 219° |
| 2026-04-25 17:42 | 33.22411 | -9.94314 | 39010 ft | 429 kts | 219° |
| 2026-04-25 17:42 | 33.17700 | -9.98684 | 39002 ft | 429 kts | 219° |
| 2026-04-25 17:43 | 33.13016 | -10.03022 | 38996 ft | 429 kts | 219° |
| 2026-04-25 17:43 | 33.08300 | -10.07388 | 39005 ft | 429 kts | 219° |
| 2026-04-25 17:44 | 33.03580 | -10.11750 | 39011 ft | 429 kts | 219° |
| 2026-04-25 17:44 | 32.98855 | -10.16100 | 39002 ft | 429 kts | 219° |
| 2026-04-25 17:45 | 32.95726 | -10.18978 | 39007 ft | 429 kts | 219° |
| 2026-04-25 17:45 | 32.89438 | -10.24755 | 39006 ft | 429 kts | 218° |
| 2026-04-25 17:46 | 32.84715 | -10.29088 | 39007 ft | 429 kts | 219° |
| 2026-04-25 17:46 | 32.79987 | -10.33418 | 38995 ft | 429 kts | 218° |
| 2026-04-25 17:47 | 32.75293 | -10.37713 | 38998 ft | 428 kts | 218° |
| 2026-04-25 17:47 | 32.70568 | -10.42031 | 39002 ft | 429 kts | 218° |
| 2026-04-25 17:48 | 32.63475 | -10.48498 | 39005 ft | 428 kts | 218° |
| 2026-04-25 17:49 | 32.58745 | -10.52805 | 39002 ft | 429 kts | 218° |
| 2026-04-25 17:49 | 32.54018 | -10.57103 | 38993 ft | 428 kts | 218° |
| 2026-04-25 17:50 | 32.49324 | -10.61365 | 38994 ft | 427 kts | 218° |
| 2026-04-25 17:50 | 32.44597 | -10.65652 | 39010 ft | 428 kts | 218° |
| 2026-04-25 17:51 | 32.39868 | -10.69933 | 39004 ft | 429 kts | 219° |
| 2026-04-25 17:51 | 32.35131 | -10.74216 | 38990 ft | 428 kts | 219° |
| 2026-04-25 17:52 | 32.30426 | -10.78466 | 39003 ft | 428 kts | 219° |
| 2026-04-25 17:52 | 32.25686 | -10.82741 | 39006 ft | 429 kts | 219° |
| 2026-04-25 17:53 | 32.20941 | -10.87013 | 38998 ft | 429 kts | 219° |
| 2026-04-25 17:53 | 32.16194 | -10.91283 | 38996 ft | 428 kts | 218° |
| 2026-04-25 17:54 | 32.11450 | -10.95546 | 38997 ft | 429 kts | 219° |
| 2026-04-25 17:54 | 32.06732 | -10.99777 | 39000 ft | 430 kts | 219° |
| 2026-04-25 17:55 | 32.01976 | -11.04036 | 38997 ft | 430 kts | 219° |
| 2026-04-25 17:55 | 31.97215 | -11.08296 | 38996 ft | 429 kts | 219° |
| 2026-04-25 17:56 | 31.92492 | -11.12517 | 39008 ft | 429 kts | 219° |
| 2026-04-25 17:56 | 31.87736 | -11.16761 | 39005 ft | 430 kts | 219° |
| 2026-04-25 17:57 | 31.82973 | -11.21004 | 38994 ft | 429 kts | 219° |
| 2026-04-25 17:57 | 31.78205 | -11.25249 | 38997 ft | 429 kts | 219° |
| 2026-04-25 17:58 | 31.73451 | -11.29487 | 39003 ft | 429 kts | 219° |
| 2026-04-25 17:58 | 31.68693 | -11.33731 | 39000 ft | 430 kts | 219° |
| 2026-04-25 17:59 | 31.63920 | -11.37981 | 38998 ft | 431 kts | 219° |
| 2026-04-25 17:59 | 31.59144 | -11.42230 | 39003 ft | 431 kts | 219° |
| 2026-04-25 18:00 | 31.54367 | -11.46476 | 38990 ft | 431 kts | 219° |
| 2026-04-25 18:00 | 31.49591 | -11.50712 | 38995 ft | 431 kts | 219° |
| 2026-04-25 18:01 | 31.44810 | -11.54948 | 38997 ft | 430 kts | 219° |
| 2026-04-25 18:01 | 31.40028 | -11.59181 | 38994 ft | 431 kts | 219° |
| 2026-04-25 18:02 | 31.35246 | -11.63406 | 39003 ft | 431 kts | 219° |
| 2026-04-25 18:02 | 31.30461 | -11.67630 | 38992 ft | 431 kts | 219° |
| 2026-04-25 18:03 | 31.25677 | -11.71847 | 38986 ft | 431 kts | 219° |
| 2026-04-25 18:03 | 31.20915 | -11.76040 | 39012 ft | 432 kts | 219° |
| 2026-04-25 18:04 | 31.16117 | -11.80257 | 39004 ft | 432 kts | 219° |
| 2026-04-25 18:04 | 31.11316 | -11.84472 | 39001 ft | 431 kts | 219° |
| 2026-04-25 18:05 | 31.06516 | -11.88682 | 39002 ft | 431 kts | 219° |
| 2026-04-25 18:05 | 31.01746 | -11.92860 | 39010 ft | 432 kts | 219° |
| 2026-04-25 18:06 | 30.96942 | -11.97061 | 39006 ft | 432 kts | 219° |
| 2026-04-25 18:06 | 30.92136 | -12.01259 | 39000 ft | 432 kts | 219° |
| 2026-04-25 18:07 | 30.87319 | -12.05462 | 39009 ft | 433 kts | 219° |
| 2026-04-25 18:07 | 30.82496 | -12.09664 | 39012 ft | 433 kts | 219° |
| 2026-04-25 18:08 | 30.77699 | -12.13838 | 39009 ft | 433 kts | 219° |
| 2026-04-25 18:08 | 30.72872 | -12.18033 | 39009 ft | 433 kts | 219° |
| 2026-04-25 18:09 | 30.68041 | -12.22226 | 39016 ft | 433 kts | 219° |
| 2026-04-25 18:09 | 30.63210 | -12.26414 | 39017 ft | 434 kts | 219° |
| 2026-04-25 18:10 | 30.58402 | -12.30577 | 39013 ft | 434 kts | 219° |
| 2026-04-25 18:10 | 30.53563 | -12.34762 | 39020 ft | 434 kts | 219° |
| 2026-04-25 18:11 | 30.48718 | -12.38936 | 39022 ft | 434 kts | 219° |
| 2026-04-25 18:11 | 30.43869 | -12.43104 | 39021 ft | 434 kts | 219° |
| 2026-04-25 18:12 | 30.39043 | -12.47248 | 39019 ft | 435 kts | 219° |
| 2026-04-25 18:12 | 30.34185 | -12.51415 | 39009 ft | 434 kts | 219° |
| 2026-04-25 18:13 | 30.29324 | -12.55578 | 39023 ft | 435 kts | 219° |
| 2026-04-25 18:13 | 30.24466 | -12.59733 | 39020 ft | 434 kts | 219° |
| 2026-04-25 18:14 | 30.17207 | -12.65933 | 39027 ft | 434 kts | 219° |
| 2026-04-25 18:14 | 30.12343 | -12.70082 | 39029 ft | 435 kts | 219° |
| 2026-04-25 18:15 | 30.07196 | -12.73762 | 39041 ft | 437 kts | 212° |
| 2026-04-25 18:15 | 30.01880 | -12.77187 | 39030 ft | 437 kts | 212° |
| 2026-04-25 18:16 | 29.96594 | -12.80568 | 39033 ft | 438 kts | 212° |
| 2026-04-25 18:17 | 29.88599 | -12.85671 | 39032 ft | 438 kts | 212° |
| 2026-04-25 18:17 | 29.83270 | -12.89068 | 39028 ft | 438 kts | 212° |
| 2026-04-25 18:18 | 29.77940 | -12.92460 | 39030 ft | 438 kts | 212° |
| 2026-04-25 18:18 | 29.72652 | -12.95823 | 38763 ft | 436 kts | 212° |
| 2026-04-25 18:18 | 29.69994 | -12.97510 | 37963 ft | 438 kts | 212° |
| 2026-04-25 18:19 | 29.67327 | -12.99203 | 37221 ft | 438 kts | 212° |
| 2026-04-25 18:19 | 29.64654 | -13.00899 | 36533 ft | 439 kts | 211° |
| 2026-04-25 18:19 | 29.61979 | -13.02596 | 35824 ft | 440 kts | 211° |
| 2026-04-25 18:19 | 29.59290 | -13.04300 | 35085 ft | 442 kts | 211° |
| 2026-04-25 18:20 | 29.56588 | -13.06011 | 34327 ft | 445 kts | 211° |
| 2026-04-25 18:20 | 29.53869 | -13.07732 | 33480 ft | 448 kts | 211° |
| 2026-04-25 18:20 | 29.51170 | -13.09439 | 32623 ft | 450 kts | 211° |
| 2026-04-25 18:20 | 29.48425 | -13.11174 | 31825 ft | 451 kts | 210° |
| 2026-04-25 18:21 | 29.45674 | -13.12911 | 31029 ft | 452 kts | 211° |
| 2026-04-25 18:21 | 29.42914 | -13.14654 | 30195 ft | 454 kts | 211° |
| 2026-04-25 18:21 | 29.40143 | -13.16402 | 29319 ft | 454 kts | 211° |
| 2026-04-25 18:21 | 29.37389 | -13.18139 | 28706 ft | 449 kts | 211° |
| 2026-04-25 18:22 | 29.34595 | -13.19720 | 28021 ft | 447 kts | 207° |
| 2026-04-25 18:22 | 29.33647 | -13.20236 | 27789 ft | 446 kts | 207° |
| 2026-04-25 18:22 | 29.29968 | -13.22261 | 27012 ft | 440 kts | 208° |
| 2026-04-25 18:22 | 29.26300 | -13.24298 | 26183 ft | 437 kts | 208° |
| 2026-04-25 18:23 | 29.24495 | -13.25302 | 25773 ft | 435 kts | 208° |
| 2026-04-25 18:23 | 29.21774 | -13.26814 | 25177 ft | 433 kts | 208° |
| 2026-04-25 18:23 | 29.19063 | -13.28298 | 24566 ft | 432 kts | 208° |
| 2026-04-25 18:23 | 29.15488 | -13.30256 | 23614 ft | 433 kts | 208° |
| 2026-04-25 18:24 | 29.12745 | -13.31758 | 22500 ft | 440 kts | 208° |
| 2026-04-25 18:24 | 29.10871 | -13.32782 | 21784 ft | 444 kts | 208° |
| 2026-04-25 18:24 | 29.08069 | -13.34316 | 20747 ft | 449 kts | 208° |
| 2026-04-25 18:24 | 29.05300 | -13.35828 | 19746 ft | 443 kts | 208° |
| 2026-04-25 18:25 | 29.02550 | -13.37329 | 18725 ft | 435 kts | 208° |
| 2026-04-25 18:25 | 28.99838 | -13.38811 | 17670 ft | 428 kts | 208° |
| 2026-04-25 18:25 | 28.97168 | -13.40268 | 16726 ft | 425 kts | 208° |
| 2026-04-25 18:25 | 28.93663 | -13.42178 | 16006 ft | 415 kts | 208° |
| 2026-04-25 18:26 | 28.91926 | -13.43125 | 15505 ft | 406 kts | 208° |
| 2026-04-25 18:26 | 28.89399 | -13.44502 | 14722 ft | 397 kts | 208° |
| 2026-04-25 18:26 | 28.86915 | -13.45854 | 14168 ft | 395 kts | 208° |
| 2026-04-25 18:26 | 28.84474 | -13.47183 | 13624 ft | 393 kts | 208° |
| 2026-04-25 18:27 | 28.82015 | -13.48520 | 13106 ft | 390 kts | 208° |
| 2026-04-25 18:27 | 28.79577 | -13.49845 | 12604 ft | 386 kts | 208° |
| 2026-04-25 18:27 | 28.77162 | -13.51157 | 12138 ft | 383 kts | 208° |
| 2026-04-25 18:27 | 28.74769 | -13.52457 | 11677 ft | 379 kts | 208° |
| 2026-04-25 18:28 | 28.72400 | -13.53742 | 11271 ft | 375 kts | 207° |
| 2026-04-25 18:28 | 28.70080 | -13.55000 | 11085 ft | 364 kts | 208° |
| 2026-04-25 18:28 | 28.67831 | -13.56220 | 10907 ft | 353 kts | 208° |
| 2026-04-25 18:29 | 28.63545 | -13.58542 | 10568 ft | 334 kts | 207° |
| 2026-04-25 18:29 | 28.61474 | -13.59662 | 10408 ft | 325 kts | 208° |
| 2026-04-25 18:30 | 28.55584 | -13.62849 | 9908 ft | 302 kts | 207° |
| 2026-04-25 18:30 | 28.53694 | -13.63870 | 9557 ft | 300 kts | 206° |
| 2026-04-25 18:30 | 28.51776 | -13.64819 | 9174 ft | 301 kts | 206° |
| 2026-04-25 18:30 | 28.49862 | -13.65755 | 8830 ft | 296 kts | 205° |
| 2026-04-25 18:31 | 28.48014 | -13.66664 | 8582 ft | 290 kts | 205° |
| 2026-04-25 18:31 | 28.46177 | -13.67570 | 8293 ft | 286 kts | 206° |
| 2026-04-25 18:31 | 28.44426 | -13.68630 | 7933 ft | 284 kts | 212° |
| 2026-04-25 18:31 | 28.42736 | -13.69724 | 7605 ft | 275 kts | 212° |
| 2026-04-25 18:32 | 28.41096 | -13.70772 | 7318 ft | 266 kts | 211° |
| 2026-04-25 18:32 | 28.39510 | -13.71778 | 7047 ft | 257 kts | 210° |
| 2026-04-25 18:32 | 28.37975 | -13.72747 | 6795 ft | 248 kts | 211° |
| 2026-04-25 18:32 | 28.36490 | -13.73681 | 6546 ft | 240 kts | 210° |
| 2026-04-25 18:33 | 28.35050 | -13.74584 | 6303 ft | 233 kts | 211° |
| 2026-04-25 18:33 | 28.33670 | -13.75450 | 6059 ft | 226 kts | 211° |
| 2026-04-25 18:33 | 28.32316 | -13.76300 | 5832 ft | 219 kts | 211° |
| 2026-04-25 18:33 | 28.31005 | -13.77121 | 5612 ft | 211 kts | 211° |
| 2026-04-25 18:34 | 28.29734 | -13.77919 | 5298 ft | 210 kts | 211° |
| 2026-04-25 18:34 | 28.28458 | -13.78746 | 4929 ft | 211 kts | 217° |
| 2026-04-25 18:34 | 28.27385 | -13.79862 | 4482 ft | 211 kts | 237° |
| 2026-04-25 18:34 | 28.26554 | -13.81271 | 3924 ft | 220 kts | 241° |
| 2026-04-25 18:35 | 28.25756 | -13.82749 | 3531 ft | 217 kts | 253° |
| 2026-04-25 18:35 | 28.25616 | -13.84351 | 3204 ft | 203 kts | 287° |
| 2026-04-25 18:35 | 28.26245 | -13.85694 | 2942 ft | 187 kts | 320° |
| 2026-04-25 18:35 | 28.27306 | -13.86376 | 2863 ft | 169 kts | 343° |
| 2026-04-25 18:36 | 28.28396 | -13.86715 | 2757 ft | 157 kts | 352° |
| 2026-04-25 18:36 | 28.29445 | -13.86830 | 2635 ft | 147 kts | 359° |
| 2026-04-25 18:36 | 28.30467 | -13.86846 | 2504 ft | 149 kts | 1° |
| 2026-04-25 18:36 | 28.31506 | -13.86826 | 2440 ft | 150 kts | 2° |
| 2026-04-25 18:37 | 28.32545 | -13.86796 | 2277 ft | 148 kts | 2° |
| 2026-04-25 18:37 | 28.33572 | -13.86762 | 2091 ft | 147 kts | 2° |
| 2026-04-25 18:37 | 28.34592 | -13.86729 | 1918 ft | 146 kts | 2° |
| 2026-04-25 18:37 | 28.35589 | -13.86696 | 1713 ft | 145 kts | 3° |
| 2026-04-25 18:38 | 28.36585 | -13.86663 | 1578 ft | 139 kts | 1° |
| 2026-04-25 18:38 | 28.37505 | -13.86633 | 1400 ft | 127 kts | 2° |
| 2026-04-25 18:38 | 28.38368 | -13.86605 | 1201 ft | 123 kts | 3° |
| 2026-04-25 18:38 | 28.39251 | -13.86573 | 1089 ft | 131 kts | 5° |
| 2026-04-25 18:39 | 28.40187 | -13.86539 | 928 ft | 137 kts | 5° |
| 2026-04-25 18:39 | 28.41149 | -13.86505 | 717 ft | 138 kts | 4° |
| 2026-04-25 18:39 | 28.42082 | -13.86481 | 572 ft | 133 kts | 3° |
| 2026-04-25 18:39 | 28.42987 | -13.86429 | 329 ft | 132 kts | 360° |
| 2026-04-25 18:40 | 28.43914 | -13.86416 | 139 ft | 133 kts | 359° |
| 2026-04-25 18:40 | 28.44778 | -13.86390 | 85 ft | 108 kts | 0° |
| 2026-04-25 18:40 | 28.45316 | -13.86373 | 86 ft | 53 kts | 2° |
| 2026-04-25 18:40 | 28.45550 | -13.86366 | 89 ft | 17 kts | 1° |
| 2026-04-25 18:41 | 28.45660 | -13.86381 | 92 ft | 13 kts | 313° |
| 2026-04-25 18:41 | 28.45662 | -13.86432 | 92 ft | 7 kts | 263° |
| 2026-04-25 18:41 | 28.45661 | -13.86487 | 92 ft | 8 kts | 271° |
| 2026-04-25 18:41 | 28.45651 | -13.86548 | 95 ft | 9 kts | 229° |
| 2026-04-25 18:42 | 28.45585 | -13.86561 | 93 ft | 12 kts | 184° |
| 2026-04-25 18:42 | 28.45526 | -13.86563 | 91 ft | 14 kts | 180° |
| 2026-04-25 18:42 | 28.45400 | -13.86567 | 90 ft | 11 kts | 187° |
| 2026-04-25 18:42 | 28.45371 | -13.86640 | 88 ft | 12 kts | 274° |
| 2026-04-25 18:43 | 28.45351 | -13.86728 | 88 ft | 13 kts | 218° |
| 2026-04-25 18:43 | 28.45259 | -13.86739 | 86 ft | 15 kts | 180° |
| 2026-04-25 18:43 | 28.45140 | -13.86743 | 84 ft | 19 kts | 182° |
| 2026-04-25 18:43 | 28.45029 | -13.86746 | 82 ft | 6 kts | 181° |
| 2026-04-25 18:44 | 28.44998 | -13.86783 | 83 ft | 8 kts | 260° |
| 2026-04-25 18:44 | 28.44996 | -13.86830 | 82 ft | 2 kts | 270° |
| 2026-04-25 18:44 | 28.44996 | -13.86839 | 82 ft | 0 kts | 271° |